Terrytown, Nebraska
Current Conditions -  °F | °C
As of 4:53 AM on Monday 22 Dec 2014 (Local Time) from KBFF Reporting Station
Broken Clouds Broken Clouds  
Wind Chill: 27°   Ceiling: 8000
Heat Index: 35°   Visibility: 10mi
Dew Point: 27°   Wind: 10mph
Humidity: 72%   Direction: 270°W
Pressure: 29.68"   Gusts: NA
Location:  41.7826°N, 103.681°W
Report Text: KBFF 221153Z AUTO 27009KT 10SM SCT065 BKN080 02/M03 A2968 RMK AO2 SLP059 T00171028 10033 20017 50009
Loading
Personal Weather Stations






























Interactive Weather Map New forecast layout! Learn more

10-Day Weather Forecast

Advertisements
Track Severe Weather on mobile